Time;durP1;ratioP1;P1;durP2;ratioP2;P2;SDS_P1;SDS_P2;PMS_P1;PMS_P2;Temp;Humidity;BMP_temperature;BMP_pressure;BME280_temperature;BME280_humidity;BME280_pressure;Samples;Min_cycle;Max_cycle;Signal;HPM_P1;HPM_P2
2023/12/20 00:00:33;;;;;;;9.53;4.30;;;7.30;91.20;;;;;;5078131;28;20264;-82
2023/12/20 00:03:02;;;;;;;3.17;2.87;;;7.30;90.70;;;;;;5080269;28;20244;-82
2023/12/20 00:05:31;;;;;;;10.20;5.37;;;7.30;90.70;;;;;;5072553;28;20222;-82
2023/12/20 00:08:05;;;;;;;16.60;7.43;;;7.30;90.70;;;;;;5068581;28;20754;-82
2023/12/20 00:10:33;;;;;;;9.53;5.50;;;7.20;90.70;;;;;;5073231;28;20558;-82
2023/12/20 00:13:04;;;;;;;6.30;5.80;;;7.20;90.70;;;;;;5066491;28;20194;-81
2023/12/20 00:15:33;;;;;;;6.60;6.10;;;7.20;90.80;;;;;;5073824;28;20205;-81
2023/12/20 00:18:02;;;;;;;10.67;6.50;;;7.20;90.70;;;;;;5068617;28;20702;-82
2023/12/20 00:20:30;;;;;;;8.80;4.97;;;7.20;90.70;;;;;;5071156;28;20205;-81
2023/12/20 00:22:59;;;;;;;5.97;5.47;;;7.20;90.70;;;;;;5069503;28;20213;-81
2023/12/20 00:25:29;;;;;;;9.73;7.60;;;7.20;91.00;;;;;;5071061;28;20229;-81
2023/12/20 00:27:57;;;;;;;7.87;7.13;;;7.10;90.70;;;;;;5068631;28;20201;-80
2023/12/20 00:30:26;;;;;;;15.93;6.10;;;7.10;90.70;;;;;;5066781;28;20209;-81
2023/12/20 00:32:55;;;;;;;7.03;6.37;;;7.10;90.80;;;;;;5071649;28;20202;-81
2023/12/20 00:35:24;;;;;;;7.90;6.37;;;7.10;90.80;;;;;;5072737;28;20194;-80
2023/12/20 00:37:52;;;;;;;5.03;4.53;;;7.00;90.80;;;;;;5056264;28;20216;-81
2023/12/20 00:40:22;;;;;;;9.37;6.57;;;7.00;90.80;;;;;;5075880;28;20230;-81
2023/12/20 00:42:52;;;;;;;10.63;5.87;;;7.00;90.80;;;;;;5071360;28;20190;-81
2023/12/20 00:45:21;;;;;;;4.30;3.53;;;7.00;90.90;;;;;;5078996;28;20220;-81
2023/12/20 00:47:49;;;;;;;6.10;4.00;;;6.90;90.80;;;;;;5077278;28;20191;-81
2023/12/20 00:50:18;;;;;;;5.63;5.13;;;6.90;90.80;;;;;;5071624;28;20198;-81
2023/12/20 00:52:47;;;;;;;4.90;4.43;;;6.90;90.80;;;;;;5070669;28;20220;-82
2023/12/20 00:55:19;;;;;;;6.73;3.47;;;6.90;90.70;;;;;;5079381;28;20197;-82
2023/12/20 00:57:53;;;;;;;4.60;4.13;;;7.00;91.10;;;;;;5081981;28;20206;-81
2023/12/20 01:00:22;;;;;;;4.60;3.13;;;7.00;90.60;;;;;;5079893;28;20641;-81
2023/12/20 01:02:51;;;;;;;7.80;4.77;;;7.00;90.50;;;;;;5072196;28;20198;-81
2023/12/20 01:05:22;;;;;;;11.17;4.97;;;7.00;90.50;;;;;;5066605;28;20744;-82
2023/12/20 01:07:51;;;;;;;4.43;4.03;;;7.00;90.40;;;;;;5069423;28;20232;-81
2023/12/20 01:10:20;;;;;;;8.33;6.33;;;6.90;90.50;;;;;;5069608;28;20193;-81
2023/12/20 01:12:49;;;;;;;8.17;4.90;;;6.90;90.50;;;;;;5072011;28;20195;-81
2023/12/20 01:15:19;;;;;;;8.23;6.07;;;6.90;90.60;;;;;;5070164;28;20208;-82
2023/12/20 01:17:49;;;;;;;5.17;4.67;;;6.90;90.60;;;;;;5072166;28;20205;-82
2023/12/20 01:20:19;;;;;;;5.80;4.90;;;6.90;90.60;;;;;;5069837;28;20245;-81
2023/12/20 01:22:48;;;;;;;6.43;3.50;;;6.90;90.50;;;;;;5069154;28;20700;-80
2023/12/20 01:25:17;;;;;;;9.10;4.47;;;6.90;90.50;;;;;;5071889;28;20222;-81
2023/12/20 01:27:46;;;;;;;6.73;5.80;;;6.90;90.50;;;;;;5067751;28;20209;-81
2023/12/20 01:30:15;;;;;;;7.13;4.30;;;6.90;90.40;;;;;;5065700;28;20209;-81
2023/12/20 01:32:47;;;;;;;4.87;4.53;;;6.90;90.30;;;;;;5069624;28;20236;-81
2023/12/20 01:35:16;;;;;;;7.77;6.07;;;7.00;90.20;;;;;;5072177;28;20667;-82
2023/12/20 01:37:44;;;;;;;4.33;3.93;;;7.00;90.20;;;;;;5081682;28;20204;-81
2023/12/20 01:40:14;;;;;;;5.27;4.87;;;6.90;90.10;;;;;;5073161;28;20198;-82
2023/12/20 01:42:43;;;;;;;8.20;3.53;;;7.00;90.10;;;;;;5061542;28;20228;-81
2023/12/20 01:45:12;;;;;;;3.20;2.87;;;6.90;90.00;;;;;;5066658;28;20286;-81
2023/12/20 01:47:41;;;;;;;3.50;3.20;;;7.00;90.10;;;;;;5073425;28;20204;-82
2023/12/20 01:50:11;;;;;;;11.87;6.57;;;7.00;90.00;;;;;;5073795;28;20719;-82
2023/12/20 01:52:40;;;;;;;4.00;3.67;;;6.90;90.00;;;;;;5078658;28;20334;-81
2023/12/20 01:55:13;;;;;;;6.30;4.60;;;6.90;90.00;;;;;;5085297;28;20586;-81
2023/12/20 01:57:42;;;;;;;6.17;4.10;;;6.90;90.20;;;;;;5079157;28;20204;-81
2023/12/20 02:00:14;;;;;;;4.40;3.80;;;6.90;90.20;;;;;;5076070;28;20229;-82
2023/12/20 02:02:44;;;;;;;5.30;4.80;;;6.90;90.30;;;;;;5073045;28;20202;-81
2023/12/20 02:05:14;;;;;;;5.27;4.43;;;6.90;90.30;;;;;;5067930;28;20691;-83
2023/12/20 02:07:43;;;;;;;19.37;5.77;;;6.90;90.30;;;;;;5078647;28;20590;-83
2023/12/20 02:10:12;;;;;;;4.07;3.23;;;6.90;90.30;;;;;;5075188;28;20197;-82
2023/12/20 02:12:42;;;;;;;5.77;5.00;;;6.90;90.20;;;;;;5070447;28;20415;-82
2023/12/20 02:15:11;;;;;;;6.43;5.83;;;6.90;90.10;;;;;;5073907;28;20679;-83
2023/12/20 02:17:40;;;;;;;3.53;3.17;;;6.90;90.10;;;;;;5075249;28;20216;-82
2023/12/20 02:20:10;;;;;;;12.10;6.63;;;6.80;90.00;;;;;;5075333;28;20683;-82
2023/12/20 02:22:43;;;;;;;9.57;6.43;;;6.80;90.10;;;;;;5074402;28;20209;-82
2023/12/20 02:25:14;;;;;;;8.37;5.77;;;6.80;90.10;;;;;;5072392;28;20247;-82
2023/12/20 02:27:46;;;;;;;7.00;6.40;;;6.80;90.00;;;;;;5071879;28;20210;-82
2023/12/20 02:30:16;;;;;;;11.37;8.07;;;6.70;90.00;;;;;;5071538;28;20277;-82
2023/12/20 02:32:45;;;;;;;10.67;7.07;;;6.70;90.00;;;;;;5068409;28;20262;-82
2023/12/20 02:35:15;;;;;;;7.13;5.33;;;6.60;90.00;;;;;;5076475;28;20293;-82
2023/12/20 02:37:45;;;;;;;6.77;4.83;;;6.60;90.00;;;;;;5074623;28;20262;-82
2023/12/20 02:40:14;;;;;;;6.50;5.30;;;6.60;90.00;;;;;;5070585;28;20230;-82
2023/12/20 02:42:42;;;;;;;7.43;4.67;;;6.60;90.00;;;;;;5072842;28;20573;-82
2023/12/20 02:45:11;;;;;;;7.43;5.67;;;6.60;90.00;;;;;;5076416;28;20333;-82
2023/12/20 02:47:39;;;;;;;9.07;4.57;;;6.60;90.00;;;;;;5072038;28;20236;-82
2023/12/20 02:50:09;;;;;;;6.77;4.23;;;6.60;90.00;;;;;;5073404;28;20193;-82
2023/12/20 02:52:38;;;;;;;4.10;3.53;;;6.60;90.00;;;;;;5082601;28;20278;-82
2023/12/20 02:55:08;;;;;;;8.43;4.57;;;6.60;90.00;;;;;;5071677;28;20225;-83
2023/12/20 02:57:41;;;;;;;4.63;4.17;;;6.60;89.80;;;;;;5076841;28;20642;-82
2023/12/20 03:00:11;;;;;;;6.13;4.83;;;6.60;89.60;;;;;;5072274;28;20236;-80
2023/12/20 03:02:40;;;;;;;4.50;3.93;;;6.60;89.50;;;;;;5076004;28;20240;-82
2023/12/20 03:05:09;;;;;;;14.00;4.83;;;6.60;89.40;;;;;;5072532;28;20621;-82
2023/12/20 03:07:38;;;;;;;3.57;2.37;;;6.60;89.20;;;;;;5076549;28;20849;-84
2023/12/20 03:10:09;;;;;;;5.70;4.00;;;6.60;89.10;;;;;;5075714;28;20667;-83
2023/12/20 03:12:48;;;;;;;5.93;5.03;;;6.50;88.90;;;;;;5077161;28;20205;-84
2023/12/20 03:15:16;;;;;;;17.33;6.20;;;6.50;88.90;;;;;;5078287;28;20208;-83
2023/12/20 03:17:45;;;;;;;5.67;4.73;;;6.50;88.80;;;;;;5075132;28;20293;-85
2023/12/20 03:20:14;;;;;;;7.33;3.90;;;6.50;88.60;;;;;;5077309;28;20232;-85
2023/12/20 03:22:43;;;;;;;4.50;4.03;;;6.50;88.50;;;;;;5073767;28;20757;-85
2023/12/20 03:25:13;;;;;;;5.67;5.00;;;6.40;88.50;;;;;;5077809;28;20204;-85
2023/12/20 03:27:41;;;;;;;7.50;5.17;;;6.40;88.60;;;;;;5073253;28;20205;-83
2023/12/20 03:30:11;;;;;;;9.47;4.83;;;6.40;88.80;;;;;;5072501;28;20229;-84
2023/12/20 03:32:40;;;;;;;8.30;6.57;;;6.40;89.00;;;;;;5074510;28;20226;-84
2023/12/20 03:35:08;;;;;;;7.53;5.87;;;6.40;89.30;;;;;;5071520;28;20209;-84
2023/12/20 03:37:37;;;;;;;5.63;4.00;;;6.40;89.40;;;;;;5075804;28;20267;-86
2023/12/20 03:40:07;;;;;;;9.67;5.67;;;6.30;89.40;;;;;;5066644;28;20205;-86
2023/12/20 03:42:37;;;;;;;5.43;4.17;;;6.40;89.50;;;;;;5078468;28;20197;-86
2023/12/20 03:45:07;;;;;;;5.10;4.57;;;6.40;89.50;;;;;;5074381;28;20227;-87
2023/12/20 03:47:35;;;;;;;5.57;3.47;;;6.40;89.50;;;;;;5075520;28;20218;-87
2023/12/20 03:50:05;;;;;;;3.93;3.63;;;6.40;89.40;;;;;;5071878;28;20281;-87
2023/12/20 03:52:33;;;;;;;5.37;4.33;;;6.40;89.40;;;;;;5076289;28;20202;-87
2023/12/20 03:55:02;;;;;;;2.83;2.60;;;6.50;89.40;;;;;;5076447;28;20652;-87
2023/12/20 03:57:30;;;;;;;6.77;4.30;;;6.50;89.20;;;;;;5083209;28;20264;-86
2023/12/20 04:00:00;;;;;;;12.27;5.90;;;6.50;89.10;;;;;;5079127;28;20221;-86
2023/12/20 04:02:29;;;;;;;6.57;4.87;;;6.50;88.80;;;;;;5075887;28;20670;-86
2023/12/20 04:04:57;;;;;;;4.90;3.03;;;6.40;88.70;;;;;;5082188;28;20194;-87
2023/12/20 04:07:26;;;;;;;5.43;4.97;;;6.40;88.80;;;;;;5069746;28;20255;-86
2023/12/20 04:09:55;;;;;;;6.73;4.83;;;6.50;88.80;;;;;;5082664;28;20728;-86
2023/12/20 04:12:24;;;;;;;6.73;4.27;;;6.40;88.60;;;;;;5077494;28;20199;-86
2023/12/20 04:14:52;;;;;;;18.07;6.43;;;6.40;88.60;;;;;;5078590;28;20267;-87
2023/12/20 04:17:22;;;;;;;4.93;4.47;;;6.40;88.60;;;;;;5077696;28;20199;-87
2023/12/20 04:19:51;;;;;;;2.63;2.43;;;6.50;88.60;;;;;;5073333;28;20208;-87
2023/12/20 04:22:20;;;;;;;4.10;3.80;;;6.40;88.50;;;;;;5077820;28;20212;-86
2023/12/20 04:24:49;;;;;;;2.50;2.30;;;6.40;88.50;;;;;;5069358;28;20198;-85
2023/12/20 04:27:18;;;;;;;4.07;3.60;;;6.50;88.50;;;;;;5077068;28;20277;-85
2023/12/20 04:29:46;;;;;;;2.43;2.23;;;6.50;88.50;;;;;;5083828;28;20241;-83
2023/12/20 04:32:15;;;;;;;1.80;1.70;;;6.50;88.30;;;;;;5075459;28;20192;-82
2023/12/20 04:34:45;;;;;;;3.27;3.00;;;6.50;88.40;;;;;;5079412;28;20201;-83
2023/12/20 04:37:13;;;;;;;3.87;3.47;;;6.50;88.40;;;;;;5072092;28;20232;-83
2023/12/20 04:39:44;;;;;;;3.20;2.63;;;6.50;88.30;;;;;;5074982;28;20202;-83
2023/12/20 04:42:13;;;;;;;5.87;4.33;;;6.50;88.30;;;;;;5076527;28;20744;-83
2023/12/20 04:44:43;;;;;;;4.17;3.77;;;6.40;88.20;;;;;;5075521;28;20232;-83
2023/12/20 04:47:12;;;;;;;3.57;3.10;;;6.50;88.20;;;;;;5072378;28;20225;-83
2023/12/20 04:49:41;;;;;;;4.87;4.40;;;6.50;88.10;;;;;;5075603;28;20203;-83
2023/12/20 04:52:11;;;;;;;5.07;4.10;;;6.50;88.00;;;;;;5070532;28;20566;-83
2023/12/20 04:54:39;;;;;;;6.37;2.70;;;6.50;88.00;;;;;;5069107;28;20214;-83
2023/12/20 04:57:12;;;;;;;6.50;4.60;;;6.50;87.90;;;;;;5068657;28;20671;-83
2023/12/20 04:59:41;;;;;;;4.83;4.40;;;6.50;88.00;;;;;;5065981;28;20634;-82
2023/12/20 05:02:09;;;;;;;3.90;2.87;;;6.50;88.00;;;;;;5064900;28;20206;-86
2023/12/20 05:04:41;;;;;;;2.30;2.13;;;6.50;88.00;;;;;;5073387;28;20197;-91
2023/12/20 05:07:11;;;;;;;4.93;4.33;;;6.50;88.00;;;;;;5072926;28;20225;-84
2023/12/20 05:09:40;;;;;;;6.50;4.80;;;6.60;88.00;;;;;;5074924;28;20209;-84
2023/12/20 05:12:10;;;;;;;4.50;3.90;;;6.50;87.90;;;;;;5071505;28;20197;-83
2023/12/20 05:14:38;;;;;;;6.73;3.53;;;6.50;87.80;;;;;;5069136;28;20272;-86
2023/12/20 05:17:07;;;;;;;3.93;3.40;;;6.50;87.70;;;;;;5070634;28;20178;-84
2023/12/20 05:19:36;;;;;;;2.40;2.20;;;6.60;87.70;;;;;;5068722;28;20197;-84
2023/12/20 05:22:05;;;;;;;10.63;4.87;;;6.60;87.70;;;;;;5070999;28;20194;-86
2023/12/20 05:24:35;;;;;;;4.03;3.53;;;6.60;87.70;;;;;;5073772;28;20586;-85
2023/12/20 05:27:04;;;;;;;5.50;4.00;;;6.60;87.60;;;;;;5062115;28;20283;-85
2023/12/20 05:29:32;;;;;;;4.53;4.13;;;6.60;87.60;;;;;;5067394;28;20205;-85
2023/12/20 05:32:01;;;;;;;5.70;4.20;;;6.60;87.50;;;;;;5072624;28;20206;-85
2023/12/20 05:34:29;;;;;;;5.97;3.43;;;6.60;87.40;;;;;;5071958;28;20249;-86
2023/12/20 05:36:59;;;;;;;4.17;3.77;;;6.60;87.30;;;;;;5079062;28;20239;-84
2023/12/20 05:39:28;;;;;;;4.83;3.77;;;6.60;87.20;;;;;;5081229;28;20209;-85
2023/12/20 05:41:57;;;;;;;8.10;3.13;;;6.60;87.00;;;;;;5075768;28;20557;-85
2023/12/20 05:44:26;;;;;;;6.63;4.07;;;6.60;86.90;;;;;;5073115;28;20217;-84
2023/12/20 05:46:54;;;;;;;6.63;6.03;;;6.60;86.70;;;;;;5071443;28;20225;-85
2023/12/20 05:49:23;;;;;;;7.93;4.97;;;6.60;86.70;;;;;;5070990;28;20204;-85
2023/12/20 05:51:52;;;;;;;4.20;3.73;;;6.60;86.70;;;;;;5070529;28;20200;-83
2023/12/20 05:54:21;;;;;;;3.50;3.20;;;6.70;86.50;;;;;;5067045;28;20695;-83
2023/12/20 05:56:50;;;;;;;8.20;5.13;;;6.60;86.40;;;;;;5069399;28;20202;-86
2023/12/20 05:59:20;;;;;;;5.97;3.23;;;6.60;86.30;;;;;;5081627;28;20225;-86
2023/12/20 06:01:49;;;;;;;5.70;3.67;;;6.70;86.30;;;;;;5076542;28;20243;-85
2023/12/20 06:04:18;;;;;;;5.10;3.00;;;6.70;86.30;;;;;;5074865;28;20244;-84
2023/12/20 06:06:48;;;;;;;3.77;3.47;;;6.70;86.40;;;;;;5068613;28;20202;-85
2023/12/20 06:09:17;;;;;;;4.50;4.00;;;6.70;86.30;;;;;;5069881;28;20778;-85
2023/12/20 06:11:45;;;;;;;2.77;2.57;;;6.70;86.30;;;;;;5076343;28;20201;-86
2023/12/20 06:14:14;;;;;;;3.90;3.60;;;6.70;86.30;;;;;;5071099;28;20201;-86
2023/12/20 06:16:45;;;;;;;2.53;2.33;;;6.80;86.30;;;;;;5070860;28;20251;-88
2023/12/20 06:19:13;;;;;;;2.33;2.13;;;6.80;86.20;;;;;;5076115;28;20677;-88
2023/12/20 06:21:42;;;;;;;3.77;2.53;;;6.80;86.20;;;;;;5069346;28;20202;-86
2023/12/20 06:24:13;;;;;;;5.33;2.93;;;6.80;86.30;;;;;;5069949;28;20228;-85
2023/12/20 06:26:41;;;;;;;3.47;2.00;;;6.80;86.30;;;;;;5079340;28;20201;-84
2023/12/20 06:29:10;;;;;;;2.13;1.90;;;6.80;86.30;;;;;;5058695;28;20217;-84
2023/12/20 06:31:38;;;;;;;3.00;2.80;;;6.80;86.30;;;;;;5070089;28;20665;-85
2023/12/20 06:34:09;;;;;;;3.67;3.40;;;6.80;86.30;;;;;;5065452;28;20206;-86
2023/12/20 06:36:37;;;;;;;6.13;5.27;;;6.80;86.30;;;;;;5078130;28;20213;-85
2023/12/20 06:39:06;;;;;;;2.40;2.17;;;6.80;86.40;;;;;;5078088;28;20681;-84
2023/12/20 06:41:34;;;;;;;3.67;2.93;;;6.90;86.40;;;;;;5078609;28;20289;-87
2023/12/20 06:44:03;;;;;;;6.17;2.93;;;6.80;86.30;;;;;;5078690;28;20218;-86
2023/12/20 06:46:31;;;;;;;7.70;3.43;;;6.80;86.30;;;;;;5080829;28;20206;-87
2023/12/20 06:49:00;;;;;;;7.93;2.77;;;6.90;86.40;;;;;;5077698;28;20218;-86
2023/12/20 06:51:30;;;;;;;3.07;2.77;;;6.90;86.40;;;;;;5075494;28;20609;-86
2023/12/20 06:54:00;;;;;;;3.50;2.53;;;6.90;86.40;;;;;;5076076;28;20201;-85
2023/12/20 06:56:28;;;;;;;3.60;2.83;;;6.90;86.30;;;;;;5087134;28;20751;-86
2023/12/20 06:58:57;;;;;;;2.57;2.37;;;6.90;86.40;;;;;;5082683;28;20599;-85
2023/12/20 07:01:25;;;;;;;3.63;2.43;;;6.90;86.40;;;;;;5064792;28;20225;-83
2023/12/20 07:03:54;;;;;;;4.80;2.20;;;6.90;86.30;;;;;;5074623;28;20206;-85
2023/12/20 07:06:23;;;;;;;4.97;4.50;;;7.00;86.40;;;;;;5079866;28;20232;-85
2023/12/20 07:08:55;;;;;;;17.83;4.13;;;7.00;86.40;;;;;;5075122;28;20257;-84
2023/12/20 07:11:24;;;;;;;1.20;1.10;;;7.00;86.40;;;;;;5074705;28;20205;-85
2023/12/20 07:13:53;;;;;;;3.97;2.93;;;7.00;86.40;;;;;;5074949;28;20233;-84
2023/12/20 07:16:23;;;;;;;2.37;2.07;;;7.00;86.30;;;;;;5074821;28;20243;-84
2023/12/20 07:18:52;;;;;;;2.50;2.30;;;7.00;86.30;;;;;;5075222;28;20241;-85
2023/12/20 07:21:21;;;;;;;5.10;2.37;;;7.00;86.40;;;;;;5081291;28;20209;-85
2023/12/20 07:23:49;;;;;;;2.33;2.13;;;7.00;86.30;;;;;;5076863;28;20552;-85
2023/12/20 07:26:20;;;;;;;4.00;3.23;;;7.00;86.30;;;;;;5075362;28;20205;-83
2023/12/20 07:28:49;;;;;;;1.20;1.10;;;7.00;86.30;;;;;;5079984;28;20335;-85
2023/12/20 07:31:18;;;;;;;15.63;1.90;;;7.00;86.20;;;;;;5083438;28;20212;-85
2023/12/20 07:33:46;;;;;;;2.63;2.43;;;7.10;86.30;;;;;;5078722;28;20198;-84
2023/12/20 07:36:15;;;;;;;2.87;2.67;;;7.10;86.20;;;;;;5084073;28;20194;-85
2023/12/20 07:38:44;;;;;;;2.40;2.20;;;7.10;86.20;;;;;;5078711;28;20204;-83
2023/12/20 07:41:13;;;;;;;5.20;2.80;;;7.10;86.20;;;;;;5083862;28;20204;-84
2023/12/20 07:43:43;;;;;;;4.03;3.60;;;7.10;86.10;;;;;;5072710;28;20222;-84
2023/12/20 07:46:13;;;;;;;2.77;2.50;;;7.20;86.10;;;;;;5079651;28;20238;-84
2023/12/20 07:48:42;;;;;;;4.93;4.43;;;7.20;86.10;;;;;;5074064;28;20226;-84
2023/12/20 07:51:16;;;;;;;8.20;4.50;;;7.20;86.10;;;;;;5075276;28;20195;-84
2023/12/20 07:53:46;;;;;;;5.27;4.40;;;7.30;86.20;;;;;;5053616;28;20209;-84
2023/12/20 07:56:16;;;;;;;4.73;3.43;;;7.40;86.30;;;;;;5073134;28;20202;-84
2023/12/20 07:58:48;;;;;;;10.83;4.90;;;7.50;86.30;;;;;;5076380;28;20317;-84
2023/12/20 08:01:21;;;;;;;9.87;5.33;;;7.60;86.20;;;;;;5073996;28;20555;-83
2023/12/20 08:03:51;;;;;;;10.57;5.13;;;7.70;86.10;;;;;;5066575;28;20198;-85
2023/12/20 08:06:22;;;;;;;8.33;7.37;;;7.70;85.70;;;;;;5076600;28;20233;-84
2023/12/20 08:08:51;;;;;;;6.03;4.33;;;7.80;85.60;;;;;;5069591;28;20230;-84
2023/12/20 08:11:31;;;;;;;7.23;6.53;;;7.90;85.90;;;;;;5065491;28;20670;-85
2023/12/20 08:14:01;;;;;;;10.43;7.10;;;7.90;85.70;;;;;;5069606;28;20208;-84
2023/12/20 08:16:29;;;;;;;11.47;7.60;;;8.00;85.80;;;;;;5072343;28;20293;-85
2023/12/20 08:18:58;;;;;;;10.23;5.63;;;8.10;85.90;;;;;;5073696;28;20595;-85
2023/12/20 08:21:27;;;;;;;7.30;6.57;;;8.10;85.70;;;;;;5074094;28;20270;-85
2023/12/20 08:23:55;;;;;;;9.57;4.97;;;8.20;85.00;;;;;;5071665;28;20562;-86
2023/12/20 08:26:24;;;;;;;7.80;4.97;;;8.20;84.70;;;;;;5071005;28;20198;-85
2023/12/20 08:28:51;;;;;;;4.00;3.60;;;8.20;84.10;;;;;;5070659;28;20223;-85
2023/12/20 08:31:24;;;;;;;3.77;3.47;;;8.30;84.10;;;;;;5071539;28;20705;-87
2023/12/20 08:33:53;;;;;;;4.13;3.40;;;8.30;83.50;;;;;;5072307;28;20700;-86
2023/12/20 08:36:23;;;;;;;4.63;3.47;;;8.40;82.70;;;;;;5072656;28;20205;-86
2023/12/20 08:38:52;;;;;;;2.83;2.47;;;8.40;83.10;;;;;;5073772;28;20641;-84
2023/12/20 08:41:22;;;;;;;8.67;6.17;;;8.50;83.50;;;;;;5066430;28;20205;-83
2023/12/20 08:43:54;;;;;;;2.83;2.63;;;8.60;83.80;;;;;;5076105;28;20195;-83
2023/12/20 08:46:25;;;;;;;5.03;4.30;;;8.60;83.50;;;;;;5069170;28;20286;-84
2023/12/20 08:48:53;;;;;;;5.60;5.10;;;8.70;83.00;;;;;;5076059;28;20308;-83
2023/12/20 08:51:25;;;;;;;2.80;2.17;;;8.80;83.00;;;;;;5068644;28;20194;-84
2023/12/20 08:53:54;;;;;;;5.67;4.33;;;8.80;82.90;;;;;;5072675;28;20726;-83
2023/12/20 08:56:22;;;;;;;3.00;2.80;;;8.90;82.60;;;;;;5075716;28;20197;-85
2023/12/20 08:58:51;;;;;;;3.93;3.40;;;9.00;82.50;;;;;;5074688;28;20669;-86
2023/12/20 09:01:19;;;;;;;8.50;4.93;;;9.00;82.60;;;;;;5071514;28;20688;-83
2023/12/20 09:03:50;;;;;;;4.07;3.40;;;9.10;83.00;;;;;;5074921;28;20714;-84
2023/12/20 09:06:19;;;;;;;17.37;6.87;;;9.10;83.40;;;;;;5071376;28;20233;-84
2023/12/20 09:08:47;;;;;;;8.43;5.07;;;9.20;83.50;;;;;;5061307;28;20685;-85
2023/12/20 09:11:17;;;;;;;10.50;4.57;;;9.30;83.70;;;;;;5079080;28;20256;-86
2023/12/20 09:13:46;;;;;;;9.80;5.63;;;9.30;83.70;;;;;;5069038;28;20237;-84
2023/12/20 09:16:15;;;;;;;17.73;5.63;;;9.40;83.70;;;;;;5070848;28;20201;-91
2023/12/20 09:18:44;;;;;;;11.73;4.70;;;9.50;84.00;;;;;;5069806;28;20296;-85
2023/12/20 09:21:14;;;;;;;4.63;4.20;;;9.50;83.30;;;;;;5072039;28;20195;-88
2023/12/20 09:23:46;;;;;;;7.20;4.53;;;9.60;83.60;;;;;;5070859;28;20672;-84
2023/12/20 09:26:14;;;;;;;6.40;4.87;;;9.70;83.60;;;;;;5076663;28;20198;-83
2023/12/20 09:28:43;;;;;;;5.60;5.10;;;9.70;83.80;;;;;;5071061;28;20489;-86
2023/12/20 09:31:11;;;;;;;9.33;5.93;;;9.80;83.30;;;;;;5075091;28;20233;-83
2023/12/20 09:33:42;;;;;;;4.70;4.30;;;9.80;82.80;;;;;;5071420;28;20229;-83
2023/12/20 09:36:11;;;;;;;3.40;2.90;;;9.90;82.70;;;;;;5072283;28;20202;-82
2023/12/20 09:38:42;;;;;;;10.90;5.73;;;9.90;82.50;;;;;;5069740;28;20312;-85
2023/12/20 09:41:15;;;;;;;4.70;3.90;;;10.00;82.40;;;;;;5068013;28;20637;-84
2023/12/20 09:43:44;;;;;;;6.50;5.30;;;10.00;82.50;;;;;;5070621;28;20209;-84
2023/12/20 09:46:15;;;;;;;8.57;5.53;;;10.10;82.60;;;;;;5067938;28;20702;-84
2023/12/20 09:48:46;;;;;;;8.03;5.47;;;10.10;82.00;;;;;;5065491;28;20281;-85
2023/12/20 09:51:17;;;;;;;4.53;3.27;;;10.10;81.50;;;;;;5065138;28;20194;-84
2023/12/20 09:53:49;;;;;;;7.23;4.93;;;10.20;81.80;;;;;;5076928;28;20283;-84
2023/12/20 09:56:18;;;;;;;3.97;2.87;;;10.20;81.80;;;;;;5079170;28;20286;-84
2023/12/20 09:58:47;;;;;;;7.43;5.20;;;10.30;81.30;;;;;;5069251;28;20218;-84
2023/12/20 10:01:17;;;;;;;7.87;3.67;;;10.30;81.30;;;;;;5078290;28;20285;-85
2023/12/20 10:03:46;;;;;;;3.50;3.20;;;10.30;81.10;;;;;;5069417;28;20206;-83
2023/12/20 10:06:15;;;;;;;12.13;4.30;;;10.40;81.70;;;;;;5077204;28;20214;-84
2023/12/20 10:08:43;;;;;;;2.43;2.23;;;10.50;81.70;;;;;;5070929;28;20209;-85
2023/12/20 10:11:14;;;;;;;6.23;3.43;;;10.50;81.30;;;;;;5076258;28;20222;-84
2023/12/20 10:13:44;;;;;;;7.57;4.03;;;10.60;81.30;;;;;;5070181;28;20205;-83
2023/12/20 10:16:12;;;;;;;6.17;3.40;;;10.60;80.70;;;;;;5081730;28;20194;-84
2023/12/20 10:18:41;;;;;;;6.60;4.40;;;10.60;80.20;;;;;;5082681;28;20718;-83
2023/12/20 10:21:11;;;;;;;5.07;3.37;;;10.60;80.40;;;;;;5085991;28;20190;-84
2023/12/20 10:23:40;;;;;;;3.27;3.00;;;10.60;80.40;;;;;;5080980;28;20237;-84
2023/12/20 10:26:09;;;;;;;8.47;5.10;;;10.70;80.80;;;;;;5077201;28;20199;-81
2023/12/20 10:28:40;;;;;;;3.47;2.67;;;10.70;80.90;;;;;;5077979;28;20268;-83
2023/12/20 10:31:09;;;;;;;4.13;3.30;;;10.80;81.00;;;;;;5075835;28;20374;-83
2023/12/20 10:33:41;;;;;;;4.53;2.50;;;10.80;82.00;;;;;;5076002;28;20202;-83
2023/12/20 10:36:13;;;;;;;4.47;4.03;;;10.90;81.60;;;;;;5068580;28;20198;-83
2023/12/20 10:38:44;;;;;;;8.10;3.70;;;11.00;81.80;;;;;;5076315;28;20206;-83
2023/12/20 10:41:13;;;;;;;7.77;3.73;;;11.00;81.80;;;;;;5079775;28;20198;-83
2023/12/20 10:43:44;;;;;;;3.80;3.33;;;11.10;81.90;;;;;;5077161;28;20232;-80
2023/12/20 10:46:13;;;;;;;4.53;3.80;;;11.20;82.20;;;;;;5082422;28;20197;-84
2023/12/20 10:48:45;;;;;;;12.00;5.50;;;11.20;82.10;;;;;;5080757;28;20211;-82
2023/12/20 10:51:18;;;;;;;7.93;6.23;;;11.30;81.90;;;;;;5074275;28;20305;-83
2023/12/20 10:53:49;;;;;;;7.87;4.13;;;11.40;82.20;;;;;;5076562;28;20310;-83
2023/12/20 10:56:19;;;;;;;4.53;3.70;;;11.40;81.90;;;;;;5078655;28;20256;-80
2023/12/20 10:58:50;;;;;;;4.67;2.87;;;11.50;81.90;;;;;;5075282;28;20321;-83
2023/12/20 11:01:20;;;;;;;3.73;3.43;;;11.50;81.30;;;;;;5074135;28;20604;-83
2023/12/20 11:03:51;;;;;;;8.70;4.03;;;11.60;80.90;;;;;;5075053;28;20199;-83
2023/12/20 11:06:37;;;;;;;8.50;5.10;;;11.60;81.30;;;;;;5077178;28;20205;-83
2023/12/20 11:09:15;;;;;;;8.57;4.30;;;11.70;81.50;;;;;;5074980;28;20711;-83
2023/12/20 11:12:00;;;;;;;3.63;3.27;;;11.80;81.60;;;;;;5075122;28;20684;-83
2023/12/20 11:14:35;;;;;;;2.93;2.63;;;11.90;81.70;;;;;;5077548;28;20219;-82
2023/12/20 11:17:08;;;;;;;3.83;2.80;;;11.90;81.50;;;;;;5072293;28;20280;-82
2023/12/20 11:20:05;;;;;;;5.90;4.20;;;12.00;81.10;;;;;;5077997;28;20244;-83
2023/12/20 11:22:34;;;;;;;5.47;4.80;;;12.10;80.50;;;;;;5070250;28;20198;-81
2023/12/20 11:25:10;;;;;;;9.40;5.47;;;12.10;80.10;;;;;;5073435;28;20206;-81
2023/12/20 11:27:45;;;;;;;5.33;3.03;;;12.20;80.40;;;;;;5076276;28;20308;-82
2023/12/20 11:30:21;;;;;;;6.17;4.50;;;12.10;79.70;;;;;;5072738;28;20225;-83
2023/12/20 11:32:50;;;;;;;5.33;4.47;;;12.20;79.50;;;;;;5071897;28;20573;-80
2023/12/20 11:35:20;;;;;;;4.67;3.33;;;12.30;79.50;;;;;;5073703;28;20226;-81
2023/12/20 11:37:52;;;;;;;7.40;4.23;;;12.30;79.60;;;;;;5064980;28;20743;-80
2023/12/20 11:40:21;;;;;;;4.63;3.53;;;12.30;79.10;;;;;;5073288;28;20240;-83
2023/12/20 11:42:52;;;;;;;6.73;4.60;;;12.40;79.50;;;;;;5074000;28;20229;-83
2023/12/20 11:45:27;;;;;;;3.80;3.03;;;12.40;79.40;;;;;;5070293;28;20207;-83
2023/12/20 11:47:58;;;;;;;4.63;2.50;;;12.40;79.10;;;;;;5072473;28;20194;-84
2023/12/20 11:50:27;;;;;;;9.93;4.43;;;12.40;78.90;;;;;;5081541;28;20214;-84
2023/12/20 11:52:57;;;;;;;5.13;4.20;;;12.30;78.40;;;;;;5075734;28;20202;-82
2023/12/20 11:55:26;;;;;;;5.27;4.00;;;12.30;78.50;;;;;;5073595;28;20656;-84
2023/12/20 11:57:54;;;;;;;2.87;2.60;;;12.30;78.60;;;;;;5077146;28;20226;-83
2023/12/20 12:00:25;;;;;;;7.37;3.67;;;12.30;78.70;;;;;;5072152;28;20258;-85
2023/12/20 12:02:58;;;;;;;5.20;4.13;;;12.30;78.80;;;;;;5074585;28;20289;-84
2023/12/20 12:05:27;;;;;;;4.03;3.20;;;12.20;78.90;;;;;;5072212;28;20206;-84
2023/12/20 12:07:56;;;;;;;5.50;3.30;;;12.20;79.60;;;;;;5074870;28;20634;-84
2023/12/20 12:10:24;;;;;;;5.07;4.17;;;12.20;79.20;;;;;;5070344;28;20309;-83
2023/12/20 12:12:53;;;;;;;3.47;3.17;;;12.20;79.40;;;;;;5076959;28;20725;-83
2023/12/20 12:15:25;;;;;;;4.37;3.20;;;12.10;79.50;;;;;;5073936;28;20199;-83
2023/12/20 12:17:55;;;;;;;5.93;3.50;;;12.10;80.00;;;;;;5073009;28;20425;-82
2023/12/20 12:20:27;;;;;;;9.87;3.83;;;12.10;80.20;;;;;;5074597;28;20226;-83
2023/12/20 12:23:00;;;;;;;9.37;6.47;;;12.10;80.10;;;;;;5076997;28;20228;-81
2023/12/20 12:25:30;;;;;;;6.80;5.20;;;12.10;80.20;;;;;;5072652;28;20198;-84
2023/12/20 12:28:00;;;;;;;9.83;4.40;;;12.10;80.40;;;;;;5070975;28;20218;-83
2023/12/20 12:30:30;;;;;;;9.17;5.57;;;12.10;80.40;;;;;;5071102;28;20716;-82
2023/12/20 12:33:06;;;;;;;7.70;2.93;;;12.00;80.50;;;;;;5075274;28;20198;-83
2023/12/20 12:35:35;;;;;;;5.87;3.20;;;12.00;80.50;;;;;;5071560;28;20399;-83
2023/12/20 12:38:04;;;;;;;5.63;3.33;;;12.00;80.50;;;;;;5076682;28;20178;-83
2023/12/20 12:40:37;;;;;;;2.57;2.37;;;12.00;80.80;;;;;;5080017;28;20202;-83
2023/12/20 12:43:06;;;;;;;4.83;4.00;;;11.90;81.00;;;;;;5074608;28;20229;-84
2023/12/20 12:45:36;;;;;;;10.13;5.53;;;11.90;81.10;;;;;;5083002;28;20259;-83
2023/12/20 12:48:05;;;;;;;5.50;4.33;;;11.90;81.60;;;;;;5087098;28;20725;-84
2023/12/20 12:50:34;;;;;;;4.83;2.43;;;11.90;81.70;;;;;;5072341;28;20568;-82
2023/12/20 12:53:03;;;;;;;11.93;6.50;;;11.90;81.90;;;;;;5070740;28;20194;-83
2023/12/20 12:55:31;;;;;;;3.30;2.97;;;11.90;82.20;;;;;;5084389;28;20294;-83
2023/12/20 12:57:59;;;;;;;6.23;4.13;;;11.90;82.20;;;;;;5079702;28;20186;-82
2023/12/20 13:00:28;;;;;;;11.47;6.47;;;11.90;82.40;;;;;;5079844;28;20228;-83
2023/12/20 13:02:58;;;;;;;26.97;3.53;;;11.90;82.40;;;;;;5074119;28;20198;-83
2023/12/20 13:05:27;;;;;;;2.90;2.40;;;11.90;82.50;;;;;;5073283;28;20194;-82